Time;durP1;ratioP1;P1;durP2;ratioP2;P2;SDS_P1;SDS_P2;PMS_P1;PMS_P2;Temp;Humidity;BMP_temperature;BMP_pressure;BME280_temperature;BME280_humidity;BME280_pressure;Samples;Min_cycle;Max_cycle;Signal;HPM_P1;HPM_P2
2024/02/09 00:00:43;;;;;;;28.67;4.80;;;12.40;99.90;;;11.96;100.00;97963.41;4186000;28;20029;-74
2024/02/09 00:02:45;;;;;;;28.25;4.90;;;12.40;99.90;;;11.98;100.00;97969.25;4185819;28;20480;-74
2024/02/09 00:04:45;;;;;;;32.78;5.68;;;12.40;99.90;;;11.99;100.00;97965.59;4187072;28;20029;-74
2024/02/09 00:06:46;;;;;;;36.72;5.82;;;12.40;99.90;;;11.98;100.00;97969.25;4185855;28;20032;-74
2024/02/09 00:08:48;;;;;;;31.00;7.47;;;12.40;99.90;;;11.99;100.00;97979.59;4187185;28;20033;-74
2024/02/09 00:10:50;;;;;;;33.65;5.03;;;12.40;99.90;;;11.99;100.00;97955.84;4187095;28;20025;-74
2024/02/09 00:12:51;;;;;;;31.08;4.80;;;12.40;99.90;;;12.03;100.00;97986.06;4187122;28;20025;-74
2024/02/09 00:14:52;;;;;;;32.38;5.78;;;12.40;99.90;;;11.98;100.00;97974.53;4185717;28;20049;-74
2024/02/09 00:16:52;;;;;;;35.83;6.20;;;12.40;99.90;;;12.03;100.00;97983.41;4185719;28;20427;-74
2024/02/09 00:18:54;;;;;;;31.10;6.05;;;12.40;99.90;;;11.98;100.00;97963.97;4187101;28;20477;-74
2024/02/09 00:20:56;;;;;;;33.25;5.43;;;12.40;99.90;;;12.00;100.00;97967.22;4186883;28;20025;-74
2024/02/09 00:22:57;;;;;;;41.25;6.90;;;12.40;99.90;;;11.93;100.00;97971.81;4185861;28;20095;-74
2024/02/09 00:24:58;;;;;;;43.08;8.40;;;12.40;99.90;;;11.92;100.00;97972.81;4187027;28;20040;-74
2024/02/09 00:27:00;;;;;;;38.05;6.18;;;12.40;99.90;;;11.95;100.00;97965.25;4186798;28;20029;-74
2024/02/09 00:29:01;;;;;;;31.48;5.95;;;12.40;99.90;;;11.88;100.00;97956.66;4186920;28;20029;-74
2024/02/09 00:31:04;;;;;;;38.30;7.10;;;12.40;99.90;;;11.95;100.00;97969.72;4168899;28;20409;-74
2024/02/09 00:33:08;;;;;;;34.10;6.88;;;12.40;99.90;;;11.95;100.00;97981.09;4186810;28;20037;-74
2024/02/09 00:35:09;;;;;;;33.33;6.30;;;12.40;99.90;;;11.92;100.00;97978.09;4186542;28;20036;-74
2024/02/09 00:37:09;;;;;;;34.72;5.85;;;12.40;99.90;;;11.93;100.00;97967.31;4185531;28;20108;-74
2024/02/09 00:39:11;;;;;;;32.28;6.15;;;12.40;99.90;;;11.91;100.00;97977.34;4185634;28;20114;-74
2024/02/09 00:41:17;;;;;;;41.65;6.45;;;12.40;99.90;;;11.88;100.00;97982.28;4185690;28;20500;-74
2024/02/09 00:43:22;;;;;;;35.70;7.40;;;12.40;99.90;;;11.88;100.00;97982.28;4185421;28;20041;-74
2024/02/09 00:45:26;;;;;;;27.98;5.88;;;12.40;99.90;;;11.96;100.00;97966.88;4185217;28;20025;-74
2024/02/09 00:47:27;;;;;;;36.25;5.80;;;12.40;99.90;;;11.86;100.00;97966.63;4186348;28;20565;-74
2024/02/09 00:49:28;;;;;;;40.55;5.55;;;12.40;99.90;;;11.95;100.00;97982.94;4186309;28;20051;-74
2024/02/09 00:51:29;;;;;;;32.05;7.20;;;12.40;99.90;;;11.90;100.00;97973.06;4186447;28;20484;-74
2024/02/09 00:53:30;;;;;;;39.67;5.75;;;12.40;99.90;;;11.93;100.00;97975.25;4185979;28;20504;-74
2024/02/09 00:55:31;;;;;;;32.78;5.03;;;12.40;99.90;;;11.91;100.00;97960.69;4185236;28;20021;-74
2024/02/09 00:57:32;;;;;;;34.85;6.22;;;12.40;99.90;;;11.84;100.00;97967.91;4186510;28;20017;-74
2024/02/09 00:59:33;;;;;;;31.92;5.43;;;12.40;99.90;;;11.76;100.00;97960.34;4186388;28;20029;-74
2024/02/09 01:01:37;;;;;;;33.75;7.50;;;12.30;99.90;;;11.79;100.00;97955.41;4184703;28;20086;-74
2024/02/09 01:03:38;;;;;;;38.55;6.47;;;12.20;99.90;;;11.75;100.00;97942.88;4184686;28;20044;-74
2024/02/09 01:05:39;;;;;;;37.35;6.53;;;12.30;99.90;;;11.76;100.00;97953.22;4176135;28;20512;-74
2024/02/09 01:07:42;;;;;;;31.90;6.05;;;12.20;99.90;;;11.76;100.00;97961.16;4182309;28;20404;-74
2024/02/09 01:09:43;;;;;;;41.90;6.50;;;12.20;99.90;;;11.76;100.00;97940.03;4168574;28;20026;-74
2024/02/09 01:11:43;;;;;;;33.58;6.35;;;12.20;99.90;;;11.74;100.00;97946.56;4185050;28;20031;-74
2024/02/09 02:46:27;;;;;;;34.63;5.43;;;11.00;99.90;;;10.42;100.00;98006.56;4184797;28;20171;-75
2024/02/09 03:04:46;;;;;;;39.08;6.82;;;10.80;99.90;;;10.30;100.00;98002.28;4188203;28;20032;-74
2024/02/09 03:06:49;;;;;;;35.58;5.45;;;10.80;99.90;;;10.23;100.00;98001.56;4188225;28;20053;-74
2024/02/09 03:08:50;;;;;;;35.47;6.20;;;10.70;99.90;;;10.35;100.00;97997.97;4186883;28;20587;-74
2024/02/09 03:10:51;;;;;;;38.40;6.05;;;10.80;99.90;;;10.25;100.00;97999.50;4186882;28;20090;-74
2024/02/09 03:12:53;;;;;;;39.65;6.65;;;10.80;99.90;;;10.25;100.00;97999.50;4169377;28;20578;-74
2024/02/09 03:14:54;;;;;;;34.90;5.30;;;10.80;99.90;;;10.26;100.00;98001.13;4187032;28;20032;-75
2024/02/09 03:16:55;;;;;;;37.03;7.78;;;10.80;99.90;;;10.23;100.00;98006.81;4187652;28;20020;-74
2024/02/09 03:18:56;;;;;;;32.75;5.10;;;10.70;99.90;;;10.22;100.00;98000.75;4186676;28;20025;-74
2024/02/09 03:20:59;;;;;;;31.95;5.82;;;10.70;99.90;;;10.21;100.00;98001.78;4187816;28;20028;-74
2024/02/09 03:23:01;;;;;;;37.50;6.28;;;10.70;99.90;;;10.23;100.00;98006.81;4187982;28;20032;-74
2024/02/09 03:25:07;;;;;;;40.97;6.75;;;10.70;99.90;;;10.19;100.00;98001.19;4186895;28;20063;-74
2024/02/09 03:27:08;;;;;;;32.72;5.53;;;10.70;99.90;;;10.15;100.00;97999.22;4170553;28;20080;-74
2024/02/09 03:29:09;;;;;;;31.27;4.30;;;10.70;99.90;;;10.10;100.00;98006.94;4186512;28;20025;-74
2024/02/09 03:31:10;;;;;;;39.35;5.93;;;10.60;99.90;;;10.11;100.00;98008.56;4186426;28;20067;-74
2024/02/09 03:33:14;;;;;;;36.75;4.72;;;10.60;99.90;;;10.12;100.00;98012.81;4187799;28;20029;-74
2024/02/09 03:35:15;;;;;;;30.45;4.88;;;10.60;99.90;;;10.17;100.00;98003.25;4186314;28;20033;-74
2024/02/09 03:37:17;;;;;;;36.08;7.32;;;10.60;99.90;;;10.15;100.00;98007.94;4169707;28;20485;-74
2024/02/09 03:39:18;;;;;;;42.65;6.35;;;10.60;99.90;;;10.21;100.00;98004.44;4176143;28;20033;-74
2024/02/09 03:41:19;;;;;;;41.42;4.47;;;10.70;99.90;;;10.20;100.00;98007.25;4169765;28;20056;-74
2024/02/09 03:43:19;;;;;;;24.40;5.20;;;10.70;99.90;;;10.17;100.00;98010.34;4186288;28;20025;-74
2024/02/09 03:45:20;;;;;;;26.95;6.20;;;10.70;99.90;;;10.16;100.00;98006.09;4187321;28;20021;-74
2024/02/09 03:47:24;;;;;;;29.50;5.85;;;10.70;99.90;;;10.18;100.00;98017.22;4186868;28;20098;-74
2024/02/09 03:49:25;;;;;;;;;;;10.70;99.90;;;10.22;100.00;98016.56;4186797;28;20613;-74
2024/02/09 03:51:26;;;;;;;29.65;4.10;;;10.70;99.90;;;10.22;100.00;98024.44;4187557;28;19931;-74
2024/02/09 03:53:30;;;;;;;27.23;5.88;;;10.70;99.90;;;10.21;100.00;98029.97;4185994;28;20044;-74
2024/02/09 03:55:31;;;;;;;37.95;5.78;;;10.70;99.90;;;10.12;100.00;98036.50;4181777;28;20061;-74
2024/02/09 03:57:32;;;;;;;22.30;4.57;;;10.70;99.90;;;10.15;100.00;98042.19;4178562;28;20033;-74
2024/02/09 03:59:33;;;;;;;36.08;5.30;;;10.70;99.90;;;10.19;100.00;98029.34;4187261;28;20025;-74
2024/02/09 04:01:34;;;;;;;31.58;5.45;;;10.70;99.90;;;10.19;100.00;98038.06;4186922;28;20033;-74
2024/02/09 04:03:35;;;;;;;31.70;4.03;;;10.70;99.90;;;10.23;100.00;98035.81;4186324;28;20385;-74
2024/02/09 04:05:37;;;;;;;28.23;4.68;;;10.80;99.90;;;10.30;100.00;98034.72;4169469;28;20066;-74
2024/02/09 04:07:37;;;;;;;28.35;5.38;;;10.90;99.90;;;10.36;100.00;98039.09;4186761;28;20021;-74
2024/02/09 04:09:39;;;;;;;26.20;5.55;;;10.90;99.90;;;10.42;100.00;98047.97;4187052;28;20170;-74
2024/02/09 04:11:39;;;;;;;27.38;4.20;;;11.00;99.90;;;10.50;100.00;98039.75;4185852;28;20126;-74
2024/02/09 04:13:40;;;;;;;32.70;5.93;;;11.00;99.90;;;10.62;100.00;98047.72;4187067;28;20029;-74
2024/02/09 04:15:41;;;;;;;20.48;4.47;;;11.10;99.90;;;10.60;100.00;98039.22;4186788;28;20077;-74
2024/02/09 04:17:44;;;;;;;31.20;5.35;;;11.10;99.90;;;10.65;100.00;98049.91;4186721;28;20081;-74
2024/02/09 04:19:45;;;;;;;32.30;5.47;;;11.20;99.90;;;10.70;100.00;98048.22;4185893;28;20029;-74
2024/02/09 04:21:49;;;;;;;27.77;4.38;;;11.20;99.90;;;10.73;100.00;98042.50;4186969;28;20378;-74
2024/02/09 04:23:51;;;;;;;32.88;4.72;;;11.20;99.90;;;10.72;100.00;98040.09;4185653;28;20082;-74
2024/02/09 04:25:52;;;;;;;24.70;5.15;;;11.20;99.90;;;10.71;100.00;98036.66;4186795;28;20111;-74
2024/02/09 04:27:53;;;;;;;25.27;4.47;;;11.20;99.90;;;10.72;100.00;98038.22;4186841;28;20496;-74
2024/02/09 04:29:54;;;;;;;27.17;3.80;;;11.20;99.90;;;10.69;100.00;98036.06;4185795;28;20029;-75
2024/02/09 04:31:55;;;;;;;23.10;4.85;;;11.20;99.90;;;10.65;100.00;98027.00;4185285;28;20021;-74
2024/02/09 04:33:59;;;;;;;29.80;4.88;;;11.20;99.90;;;10.62;100.00;98026.63;4186814;28;20021;-74
2024/02/09 04:36:00;;;;;;;26.70;3.92;;;11.20;99.90;;;10.53;100.00;98024.31;4186808;28;20025;-74
2024/02/09 04:38:06;;;;;;;25.45;5.18;;;11.10;99.90;;;10.53;100.00;98031.41;4186635;28;20032;-74
2024/02/09 04:40:07;;;;;;;23.90;4.57;;;11.00;99.90;;;10.43;100.00;98031.91;4186627;28;20103;-74
2024/02/09 04:42:08;;;;;;;25.83;4.88;;;11.00;99.90;;;10.34;100.00;98033.22;4186886;28;20048;-74
2024/02/09 04:44:09;;;;;;;20.65;3.50;;;10.90;99.90;;;10.29;100.00;98037.56;4185467;28;20056;-74
2024/02/09 04:46:11;;;;;;;26.90;7.65;;;10.90;99.90;;;10.22;100.00;98037.63;4168411;28;20076;-74
2024/02/09 04:48:12;;;;;;;31.58;5.10;;;10.80;99.90;;;10.15;100.00;98034.28;4185286;28;20037;-74
2024/02/09 04:50:13;;;;;;;27.55;3.90;;;10.80;99.90;;;10.20;100.00;98044.16;4186566;28;20128;-74
2024/02/09 04:52:14;;;;;;;16.83;2.78;;;10.70;99.90;;;10.16;100.00;98042.97;4186174;28;20060;-74
2024/02/09 04:54:15;;;;;;;23.27;3.88;;;10.70;99.90;;;10.06;100.00;98032.13;4185882;28;20036;-74
2024/02/09 04:56:26;;;;;;;33.75;5.15;;;10.60;99.90;;;10.00;100.00;98031.16;4185182;28;20104;-74
2024/02/09 04:58:27;;;;;;;24.83;4.07;;;10.60;99.90;;;9.93;100.00;98028.59;4186324;28;20033;-74
2024/02/09 05:00:28;;;;;;;28.30;4.50;;;10.50;99.90;;;9.89;100.00;98031.84;4186437;28;20025;-74
2024/02/09 05:02:33;;;;;;;28.88;3.80;;;10.50;99.90;;;9.93;100.00;98036.50;4186208;28;20071;-74
2024/02/09 05:04:34;;;;;;;26.20;4.45;;;10.50;99.90;;;9.90;100.00;98042.19;4186229;28;20504;-74
2024/02/09 05:06:36;;;;;;;28.80;3.88;;;10.50;99.90;;;9.95;100.00;98039.69;4186369;28;20051;-74
2024/02/09 05:08:36;;;;;;;19.27;3.17;;;10.50;99.90;;;9.97;100.00;98034.22;4175856;28;20039;-74
2024/02/09 05:10:39;;;;;;;21.88;4.15;;;10.50;99.90;;;10.05;100.00;98038.41;4175440;28;20017;-75
2024/02/09 05:12:40;;;;;;;30.40;4.57;;;10.60;99.90;;;10.10;100.00;98031.44;4169651;28;20025;-74
2024/02/09 05:14:41;;;;;;;21.05;4.13;;;10.60;99.90;;;10.22;100.00;98039.44;4169579;28;20033;-74
2024/02/09 05:16:41;;;;;;;30.90;4.18;;;10.70;99.90;;;10.25;100.00;98034.56;4169962;28;20026;-74
2024/02/09 05:18:43;;;;;;;34.42;4.80;;;10.80;99.90;;;10.35;100.00;98041.94;4184323;28;20029;-74
2024/02/09 05:20:48;;;;;;;32.10;4.18;;;10.80;99.90;;;10.36;100.00;98033.81;4184975;28;20396;-74
2024/02/09 05:22:49;;;;;;;34.35;5.22;;;10.90;99.90;;;10.27;100.00;98029.88;4186099;28;20032;-74
2024/02/09 05:24:50;;;;;;;24.83;3.90;;;10.90;99.90;;;10.32;100.00;98032.66;4186046;28;20033;-74
2024/02/09 05:26:51;;;;;;;27.17;4.80;;;10.90;99.90;;;10.34;100.00;98033.22;4185950;28;20029;-74
2024/02/09 05:28:52;;;;;;;24.58;4.05;;;10.90;99.90;;;10.41;100.00;98039.25;4184507;28;20088;-74
2024/02/09 05:30:53;;;;;;;23.23;3.65;;;11.00;99.90;;;10.46;100.00;98039.38;4167882;28;20037;-74
2024/02/09 05:32:55;;;;;;;27.00;4.88;;;11.00;99.90;;;10.51;100.00;98039.50;4184879;28;20021;-74
2024/02/09 05:34:57;;;;;;;22.77;5.32;;;11.00;99.90;;;10.56;100.00;98038.88;4185854;28;20032;-74
2024/02/09 05:36:58;;;;;;;33.10;4.72;;;11.10;99.90;;;10.66;100.00;98035.72;4184358;28;20072;-74
2024/02/09 05:39:00;;;;;;;24.98;5.68;;;11.10;99.90;;;10.67;100.00;98043.38;4185691;28;20033;-74
2024/02/09 05:41:02;;;;;;;22.52;4.40;;;11.20;99.90;;;10.71;100.00;98046.38;4185855;28;20025;-75
2024/02/09 05:43:03;;;;;;;20.70;4.15;;;11.20;99.90;;;10.77;100.00;98045.50;4184650;28;20063;-75
2024/02/09 05:45:05;;;;;;;27.83;5.35;;;11.30;99.90;;;10.83;100.00;98040.13;4185603;28;20511;-74
2024/02/09 05:47:06;;;;;;;20.17;3.55;;;11.30;99.90;;;10.87;100.00;98045.78;4184152;28;20432;-74
2024/02/09 05:49:07;;;;;;;21.65;4.47;;;11.40;99.90;;;10.88;100.00;98040.25;4185557;28;20041;-74
2024/02/09 05:51:21;;;;;;;23.52;3.90;;;11.40;99.90;;;10.94;100.00;98034.09;4184468;28;20472;-74
2024/02/09 05:53:22;;;;;;;19.05;3.53;;;11.40;99.90;;;10.89;100.00;98036.59;4184049;28;20029;-74
2024/02/09 05:55:23;;;;;;;25.33;4.55;;;11.40;99.90;;;10.93;100.00;98039.59;4184560;28;20221;-74
2024/02/09 05:57:27;;;;;;;17.88;3.45;;;11.40;99.90;;;10.85;100.00;98038.06;4184161;28;20009;-74
2024/02/09 05:59:29;;;;;;;;;;;11.40;99.90;;;10.78;100.00;98026.78;4184552;28;20067;-74
2024/02/09 06:01:32;;;;;;;19.45;4.18;;;11.40;99.90;;;10.79;100.00;98032.88;4185318;28;20004;-74
2024/02/09 06:03:33;;;;;;;19.40;3.55;;;11.40;99.90;;;10.78;100.00;98026.78;4185661;28;20116;-74
2024/02/09 06:05:38;;;;;;;25.05;4.07;;;11.40;99.90;;;10.81;100.00;98021.06;4184271;28;20492;-74
2024/02/09 06:07:39;;;;;;;17.95;3.63;;;11.40;99.90;;;10.73;100.00;98021.41;4185528;28;20043;-74
2024/02/09 06:09:40;;;;;;;18.77;4.03;;;11.30;99.90;;;10.63;100.00;98023.78;4184009;28;20025;-74
2024/02/09 06:11:41;;;;;;;25.17;3.92;;;11.30;99.90;;;10.57;100.00;98024.66;4184223;28;20021;-74
2024/02/09 06:13:46;;;;;;;18.92;2.92;;;11.10;99.90;;;10.45;100.00;98021.94;4184036;28;20025;-75
2024/02/09 06:15:47;;;;;;;19.17;3.83;;;11.10;99.90;;;10.35;100.00;98019.03;4185020;28;20527;-74
2024/02/09 06:17:47;;;;;;;23.23;4.45;;;11.00;99.90;;;10.38;100.00;98030.97;4185018;28;20033;-74
2024/02/09 06:19:49;;;;;;;17.85;2.83;;;10.90;99.90;;;10.24;100.00;98014.53;4185327;28;20021;-75
2024/02/09 06:21:50;;;;;;;16.00;3.20;;;10.90;99.90;;;10.19;100.00;98014.34;4185288;28;20032;-74
2024/02/09 06:23:51;;;;;;;25.08;3.50;;;10.80;99.90;;;10.19;100.00;98013.53;4185191;28;20021;-74
2024/02/09 06:25:52;;;;;;;25.83;3.45;;;10.70;99.90;;;10.21;100.00;98006.25;4183806;28;20025;-74
2024/02/09 06:27:55;;;;;;;14.48;2.50;;;10.70;99.90;;;10.12;100.00;98012.81;4185122;28;20029;-74
2024/02/09 06:29:56;;;;;;;17.98;3.33;;;10.70;99.90;;;10.03;100.00;98002.53;4184004;28;20025;-74
2024/02/09 06:31:57;;;;;;;18.77;2.50;;;10.70;99.90;;;10.01;100.00;98004.59;4183716;28;20507;-74
2024/02/09 06:33:58;;;;;;;21.08;3.80;;;10.60;99.90;;;10.03;100.00;97989.38;4184917;28;20025;-74
2024/02/09 06:35:59;;;;;;;14.25;2.67;;;10.60;99.90;;;10.03;100.00;97996.50;4183982;28;20037;-74
2024/02/09 06:38:00;;;;;;;19.77;4.10;;;10.60;99.90;;;10.01;100.00;97993.25;4184980;28;20029;-74
2024/02/09 06:40:02;;;;;;;19.55;3.42;;;10.60;99.90;;;9.98;100.00;97999.75;4184035;28;20020;-74
2024/02/09 06:42:03;;;;;;;12.55;2.47;;;10.60;99.90;;;9.94;100.00;97988.06;4183686;28;20028;-74
2024/02/09 06:44:04;;;;;;;21.10;3.90;;;10.60;99.90;;;9.88;100.00;97986.31;4195303;28;20623;-75
2024/02/09 06:46:05;;;;;;;27.80;3.63;;;10.50;99.90;;;9.98;100.00;97988.41;4183682;28;20057;-74
2024/02/09 06:48:06;;;;;;;16.02;2.35;;;10.50;99.90;;;9.94;100.00;97982.81;4183390;28;20075;-74
2024/02/09 06:50:10;;;;;;;21.10;2.78;;;10.50;99.90;;;9.97;100.00;97989.47;4183280;28;20103;-74
2024/02/09 06:52:11;;;;;;;17.60;4.05;;;10.60;99.90;;;9.92;100.00;97981.41;4185349;28;20032;-75
2024/02/09 06:54:12;;;;;;;22.20;3.22;;;10.50;99.90;;;9.95;100.00;97996.75;4183921;28;20054;-74
2024/02/09 06:56:13;;;;;;;24.00;2.63;;;10.50;99.90;;;9.93;100.00;97996.19;4183672;28;20108;-74
2024/02/09 06:58:14;;;;;;;34.30;3.72;;;10.50;99.90;;;9.96;100.00;97995.75;4167196;28;20029;-74
2024/02/09 07:00:16;;;;;;;18.42;3.03;;;10.50;99.90;;;9.97;100.00;97997.38;4180955;28;20026;-74
2024/02/09 07:02:18;;;;;;;18.52;3.92;;;10.50;99.90;;;9.99;100.00;97993.47;4167230;28;20025;-74
2024/02/09 07:04:19;;;;;;;22.92;3.22;;;10.60;99.90;;;10.13;100.00;98001.22;4170911;28;20029;-74
2024/02/09 07:06:22;;;;;;;20.30;2.97;;;10.60;99.90;;;10.20;100.00;98010.72;4167012;28;20028;-75
2024/02/09 07:08:39;;;;;;;25.10;4.65;;;10.70;99.90;;;10.26;100.00;97996.66;4179774;28;20032;-74
2024/02/09 07:10:40;;;;;;;20.50;2.40;;;10.80;99.90;;;10.38;100.00;98008.06;4185023;28;20059;-74
2024/02/09 07:12:41;;;;;;;19.23;3.35;;;10.90;99.90;;;10.38;100.00;98008.06;4184793;28;20029;-74
2024/02/09 07:14:42;;;;;;;20.42;3.70;;;11.00;99.90;;;10.46;100.00;98012.22;4183626;28;20539;-75
2024/02/09 07:16:47;;;;;;;34.35;4.03;;;11.00;99.90;;;10.47;100.00;98009.38;4184737;28;20021;-75
2024/02/09 07:18:48;;;;;;;24.88;3.83;;;11.00;99.90;;;10.46;100.00;97996.41;4183254;28;20067;-75
2024/02/09 07:20:49;;;;;;;29.73;5.63;;;11.00;99.90;;;10.48;100.00;98003.06;4183607;28;20053;-75
2024/02/09 07:22:51;;;;;;;25.30;3.78;;;11.00;99.90;;;10.47;100.00;97998.84;4185026;28;20033;-74
2024/02/09 07:24:51;;;;;;;27.60;3.85;;;11.00;99.90;;;10.54;100.00;97998.75;4183544;28;20100;-74
2024/02/09 07:26:52;;;;;;;30.58;5.45;;;11.10;99.90;;;10.53;100.00;97995.31;4184704;28;20035;-74
2024/02/09 07:28:54;;;;;;;29.42;5.13;;;11.10;99.90;;;10.59;100.00;98000.72;4183456;28;20048;-75
2024/02/09 07:30:56;;;;;;;24.85;3.85;;;11.10;99.90;;;10.58;100.00;97999.91;4184713;28;20441;-75
2024/02/09 07:32:57;;;;;;;22.10;3.30;;;11.20;99.90;;;10.60;100.00;98008.41;4183617;28;20032;-75
2024/02/09 07:34:58;;;;;;;34.88;4.72;;;11.10;99.90;;;10.59;100.00;98001.53;4183321;28;20040;-74
2024/02/09 07:36:58;;;;;;;27.92;4.30;;;11.20;99.90;;;10.60;100.00;98011.03;4184533;28;20021;-74
2024/02/09 07:38:59;;;;;;;27.80;4.07;;;11.20;99.90;;;10.54;100.00;97998.75;4171252;28;20040;-75
2024/02/09 07:41:00;;;;;;;25.50;4.88;;;11.20;99.90;;;10.63;100.00;98007.97;4184707;28;20029;-75
2024/02/09 07:43:01;;;;;;;30.63;4.88;;;11.20;99.90;;;10.63;100.00;98012.44;4187515;28;20480;-74
2024/02/09 07:45:02;;;;;;;27.35;3.65;;;11.20;99.90;;;10.69;100.00;98014.97;4186220;28;20558;-74
2024/02/09 07:47:04;;;;;;;27.20;4.78;;;11.20;99.90;;;10.70;100.00;98024.47;4185661;28;20564;-74
2024/02/09 07:49:05;;;;;;;30.08;5.72;;;11.30;99.90;;;10.73;100.00;98002.94;4169722;28;20164;-74
2024/02/09 07:51:06;;;;;;;33.05;4.50;;;11.30;99.90;;;10.72;100.00;98009.22;4185972;28;20037;-74
2024/02/09 07:53:08;;;;;;;25.38;4.45;;;11.30;99.90;;;10.76;100.00;98014.88;4186664;28;20076;-74
2024/02/09 07:55:09;;;;;;;26.48;4.20;;;11.30;99.90;;;10.73;100.00;98020.59;4184269;28;20033;-74
2024/02/09 07:57:10;;;;;;;27.20;5.93;;;11.30;99.90;;;10.74;100.00;98011.66;4187606;28;20041;-74
2024/02/09 07:59:11;;;;;;;34.65;6.13;;;11.30;99.90;;;10.69;100.00;98014.97;4185909;28;20021;-74
2024/02/09 08:01:12;;;;;;;29.13;5.75;;;11.30;99.90;;;10.69;100.00;98028.16;4187090;28;20029;-74
2024/02/09 08:03:13;;;;;;;25.42;4.82;;;11.30;99.90;;;10.68;100.00;98021.28;4169605;28;20025;-74
2024/02/09 08:05:17;;;;;;;26.50;5.10;;;11.30;99.90;;;10.71;100.00;98020.03;4187497;28;20496;-74
2024/02/09 08:07:20;;;;;;;29.10;5.18;;;11.30;99.90;;;10.73;100.00;98029.31;4185356;28;20070;-74
2024/02/09 08:09:21;;;;;;;30.08;4.55;;;11.30;99.90;;;10.72;100.00;98024.28;4183952;28;20039;-74
2024/02/09 08:11:22;;;;;;;49.50;5.03;;;11.30;99.90;;;10.74;100.00;98030.13;4184532;28;20021;-74
2024/02/09 08:13:23;;;;;;;39.28;5.03;;;11.30;99.90;;;10.76;100.00;98025.41;4185595;28;20540;-74
2024/02/09 08:15:24;;;;;;;30.58;5.15;;;11.30;99.90;;;10.79;100.00;98025.78;4186253;28;20048;-74
2024/02/09 08:17:25;;;;;;;33.42;5.55;;;11.40;99.90;;;10.90;100.00;98027.66;4168470;28;20013;-74
2024/02/09 08:19:26;;;;;;;35.30;5.32;;;11.40;99.90;;;10.96;100.00;98023.34;4186241;28;20033;-74
2024/02/09 08:21:27;;;;;;;30.02;4.75;;;11.50;99.90;;;11.02;100.00;98031.13;4186094;28;20033;-74
2024/02/09 08:23:29;;;;;;;27.25;5.43;;;11.50;99.90;;;11.05;100.00;98033.31;4167741;28;20017;-75
2024/02/09 08:25:30;;;;;;;23.25;4.28;;;11.50;99.90;;;11.13;100.00;98028.75;4186634;28;20033;-75
2024/02/09 08:27:30;;;;;;;28.00;4.75;;;11.60;99.90;;;11.17;100.00;98030.72;4185175;28;20428;-75
2024/02/09 08:29:32;;;;;;;29.55;4.93;;;11.70;99.90;;;11.28;100.00;98032.59;4168800;28;20077;-75
2024/02/09 08:31:33;;;;;;;28.45;5.45;;;11.70;99.90;;;11.38;100.00;98026.78;4184739;28;20029;-75
2024/02/09 08:33:36;;;;;;;30.08;6.47;;;11.80;99.90;;;11.47;100.00;98038.56;4186588;28;20404;-75
2024/02/09 08:35:37;;;;;;;28.10;4.88;;;11.90;99.90;;;11.53;100.00;98042.94;4186728;28;20029;-75
2024/02/09 08:37:38;;;;;;;27.42;5.47;;;12.00;99.90;;;11.56;100.00;98037.22;4185915;28;20079;-75
2024/02/09 08:39:40;;;;;;;20.83;4.65;;;12.10;99.90;;;11.64;100.00;98053.56;4185622;28;20067;-75
2024/02/09 08:41:41;;;;;;;28.33;5.05;;;12.10;99.90;;;11.75;100.00;98048.53;4185759;28;20033;-75
2024/02/09 08:43:42;;;;;;;26.80;5.53;;;12.20;99.90;;;11.76;100.00;98044.84;4186181;28;20013;-75
2024/02/09 08:45:43;;;;;;;21.75;4.43;;;12.20;99.90;;;11.82;100.00;98041.28;4185284;28;20082;-75
2024/02/09 08:47:44;;;;;;;24.67;4.57;;;12.30;99.90;;;11.87;100.00;98044.84;4186487;28;20028;-75
2024/02/09 08:49:45;;;;;;;26.33;5.88;;;12.30;99.90;;;11.83;100.00;98050.81;4186634;28;20033;-75
2024/02/09 08:51:46;;;;;;;29.63;5.50;;;12.30;99.90;;;11.81;100.00;98053.69;4186392;28;20028;-75
2024/02/09 08:53:46;;;;;;;25.27;5.28;;;12.30;99.90;;;11.82;100.00;98055.31;4184073;28;20036;-75
2024/02/09 08:55:47;;;;;;;28.33;4.80;;;12.30;99.90;;;11.81;100.00;98048.41;4186550;28;20029;-75
2024/02/09 08:57:49;;;;;;;23.42;4.53;;;12.30;99.90;;;11.81;100.00;98042.31;4185447;28;20027;-75
2024/02/09 08:59:50;;;;;;;33.33;5.43;;;12.30;99.90;;;11.84;100.00;98041.88;4186498;28;20392;-75
2024/02/09 09:01:51;;;;;;;33.67;7.07;;;12.40;99.90;;;11.87;100.00;98041.41;4186297;28;20029;-75
2024/02/09 09:03:54;;;;;;;35.92;6.65;;;12.40;99.90;;;11.87;100.00;98036.94;4178314;28;20085;-75
2024/02/09 09:05:55;;;;;;;25.15;6.55;;;12.40;99.90;;;11.84;100.00;98036.59;4168598;28;20028;-76
2024/02/09 09:07:56;;;;;;;28.15;5.55;;;12.40;99.90;;;11.87;100.00;98031.66;4176711;28;20025;-77
2024/02/09 09:09:56;;;;;;;30.42;4.82;;;12.40;99.90;;;11.91;100.00;98035.44;4185255;28;20040;-80
2024/02/09 09:11:57;;;;;;;24.38;5.30;;;12.40;99.90;;;11.93;100.00;98032.56;4184994;28;20029;-77
2024/02/09 09:14:00;;;;;;;31.55;4.22;;;12.40;99.90;;;12.00;100.00;98033.25;4186354;28;20029;-78
2024/02/09 09:16:01;;;;;;;20.08;4.03;;;12.50;99.90;;;12.04;100.00;98031.75;4184695;28;20481;-77
2024/02/09 09:18:02;;;;;;;19.00;4.60;;;12.50;99.90;;;12.07;100.00;98034.72;4185991;28;20028;-78
2024/02/09 09:20:03;;;;;;;30.77;4.97;;;12.60;99.90;;;12.06;100.00;98033.16;4184998;28;20025;-78
2024/02/09 09:22:04;;;;;;;32.67;5.03;;;12.60;99.90;;;12.08;100.00;98032.91;4186035;28;20396;-77
2024/02/09 09:24:10;;;;;;;23.38;4.53;;;12.60;99.90;;;12.08;100.00;98041.63;4184846;28;20029;-77
2024/02/09 09:26:11;;;;;;;30.73;5.80;;;12.60;99.90;;;12.09;100.00;98037.16;4186167;28;20021;-77
2024/02/09 09:28:14;;;;;;;27.92;3.50;;;12.60;99.90;;;12.10;100.00;98033.47;4185948;28;20031;-77
2024/02/09 09:30:17;;;;;;;23.00;4.15;;;12.60;99.90;;;12.16;100.00;98030.69;4184926;28;20021;-77
2024/02/09 09:32:19;;;;;;;17.95;3.53;;;12.70;99.90;;;12.25;100.00;98025.03;4185705;28;20099;-77
2024/02/09 09:34:20;;;;;;;23.65;4.85;;;12.70;99.90;;;12.36;100.00;98032.19;4184727;28;20047;-76
2024/02/09 09:36:21;;;;;;;28.80;4.05;;;12.80;99.90;;;12.27;100.00;98026.44;4185551;28;20060;-77
2024/02/09 09:38:22;;;;;;;23.23;3.72;;;12.80;99.90;;;12.22;100.00;98036.88;4184490;28;20021;-76
2024/02/09 09:40:27;;;;;;;24.33;4.15;;;12.70;99.90;;;12.00;100.00;98039.34;4185176;28;20397;-78
2024/02/09 09:42:28;;;;;;;25.88;4.47;;;12.60;99.90;;;11.98;100.00;98022.91;4184319;28;20025;-78
2024/02/09 09:44:29;;;;;;;22.27;4.43;;;12.60;99.90;;;12.08;100.00;98031.06;4184553;28;20029;-78
2024/02/09 09:46:31;;;;;;;29.92;4.78;;;12.60;99.90;;;12.21;100.00;98024.75;4184040;28;20029;-80
2024/02/09 09:48:33;;;;;;;25.55;5.55;;;12.70;99.90;;;12.29;100.00;98028.84;4184202;28;20079;-79
2024/02/09 09:50:35;;;;;;;28.70;7.15;;;12.80;99.90;;;12.30;100.00;98039.19;4184158;28;20032;-78
2024/02/09 09:52:39;;;;;;;26.40;5.93;;;12.80;99.90;;;12.33;100.00;98024.72;4184373;28;20049;-79
2024/02/09 09:54:40;;;;;;;26.65;4.80;;;12.90;99.90;;;12.46;100.00;98021.78;4184305;28;20025;-80
2024/02/09 09:56:44;;;;;;;38.13;6.82;;;13.00;99.90;;;12.60;100.00;98020.50;4184324;28;20044;-79
2024/02/09 09:58:45;;;;;;;22.75;4.35;;;13.10;99.90;;;12.76;100.00;98015.25;4185474;28;20024;-79
2024/02/09 10:00:48;;;;;;;23.67;5.80;;;13.20;99.90;;;12.88;100.00;98011.75;4167753;28;20479;-79
2024/02/09 10:02:50;;;;;;;27.92;4.57;;;13.40;99.90;;;13.03;100.00;98017.31;4184469;28;20569;-79
2024/02/09 10:04:51;;;;;;;23.02;5.15;;;13.50;99.90;;;13.11;100.00;98009.81;4185068;28;20404;-79
2024/02/09 10:06:52;;;;;;;31.90;6.40;;;13.60;99.90;;;13.23;100.00;98013.22;4185500;28;20074;-78
2024/02/09 10:08:53;;;;;;;29.88;4.90;;;13.70;99.90;;;13.28;100.00;98005.38;4167534;28;20034;-79
2024/02/09 10:10:55;;;;;;;23.75;4.80;;;13.80;99.90;;;13.24;100.00;97996.28;4200872;28;20035;-79